sensor_id;sensor_type;location;lat;lon;timestamp;temperature;humidity
4677;DHT22;2352;48.180;11.478;2023-11-21T08:43:49;7.90;99.90
4677;DHT22;2352;48.180;11.478;2023-11-21T08:46:53;8.30;99.90
4677;DHT22;2352;48.180;11.478;2023-11-21T08:49:56;8.60;99.90
4677;DHT22;2352;48.180;11.478;2023-11-21T08:53:00;9.10;99.90
4677;DHT22;2352;48.180;11.478;2023-11-21T08:56:03;9.30;99.90
4677;DHT22;2352;48.180;11.478;2023-11-21T08:59:08;9.40;99.90
4677;DHT22;2352;48.180;11.478;2023-11-21T09:02:12;9.50;99.90
4677;DHT22;2352;48.180;11.478;2023-11-21T09:05:15;9.50;99.90
4677;DHT22;2352;48.180;11.478;2023-11-21T09:08:19;9.50;99.90
4677;DHT22;2352;48.180;11.478;2023-11-21T09:11:23;9.80;99.90
4677;DHT22;2352;48.180;11.478;2023-11-21T09:14:30;10.00;99.90
4677;DHT22;2352;48.180;11.478;2023-11-21T09:17:33;10.20;99.90
4677;DHT22;2352;48.180;11.478;2023-11-21T09:20:37;10.20;99.90
4677;DHT22;2352;48.180;11.478;2023-11-21T09:23:39;10.40;99.90
4677;DHT22;2352;48.180;11.478;2023-11-21T09:26:42;10.70;99.90
4677;DHT22;2352;48.180;11.478;2023-11-21T09:29:48;10.60;99.90
4677;DHT22;2352;48.180;11.478;2023-11-21T09:32:51;10.40;99.90
4677;DHT22;2352;48.180;11.478;2023-11-21T09:35:54;10.70;99.90
4677;DHT22;2352;48.180;11.478;2023-11-21T09:38:57;10.40;99.90
4677;DHT22;2352;48.180;11.478;2023-11-21T09:42:05;10.60;99.90
4677;DHT22;2352;48.180;11.478;2023-11-21T09:45:17;10.70;99.90
4677;DHT22;2352;48.180;11.478;2023-11-21T09:48:23;10.70;99.90
4677;DHT22;2352;48.180;11.478;2023-11-21T09:51:27;10.80;99.90
4677;DHT22;2352;48.180;11.478;2023-11-21T09:54:35;10.90;99.90
4677;DHT22;2352;48.180;11.478;2023-11-21T09:57:39;11.10;99.90
4677;DHT22;2352;48.180;11.478;2023-11-21T10:00:44;10.40;99.90
4677;DHT22;2352;48.180;11.478;2023-11-21T10:03:47;10.60;99.90
4677;DHT22;2352;48.180;11.478;2023-11-21T10:06:51;10.90;99.90
4677;DHT22;2352;48.180;11.478;2023-11-21T10:09:55;11.00;99.90
4677;DHT22;2352;48.180;11.478;2023-11-21T10:13:02;11.10;99.90
4677;DHT22;2352;48.180;11.478;2023-11-21T10:16:07;11.00;99.90
4677;DHT22;2352;48.180;11.478;2023-11-21T10:19:14;10.90;99.90
4677;DHT22;2352;48.180;11.478;2023-11-21T10:22:18;11.10;99.90
4677;DHT22;2352;48.180;11.478;2023-11-21T10:25:21;11.20;99.90
4677;DHT22;2352;48.180;11.478;2023-11-21T10:28:24;11.30;99.90
4677;DHT22;2352;48.180;11.478;2023-11-21T10:31:29;11.20;99.90
4677;DHT22;2352;48.180;11.478;2023-11-21T10:34:33;11.40;99.90
4677;DHT22;2352;48.180;11.478;2023-11-21T10:37:36;11.30;99.90
4677;DHT22;2352;48.180;11.478;2023-11-21T10:40:41;11.10;99.90
4677;DHT22;2352;48.180;11.478;2023-11-21T10:43:48;10.90;99.90
4677;DHT22;2352;48.180;11.478;2023-11-21T10:46:53;10.70;99.90
4677;DHT22;2352;48.180;11.478;2023-11-21T10:50:00;10.80;99.90
4677;DHT22;2352;48.180;11.478;2023-11-21T10:53:04;11.00;99.90
4677;DHT22;2352;48.180;11.478;2023-11-21T10:56:09;11.20;99.90
4677;DHT22;2352;48.180;11.478;2023-11-21T10:59:19;11.20;99.90
4677;DHT22;2352;48.180;11.478;2023-11-21T11:02:28;11.00;99.90
4677;DHT22;2352;48.180;11.478;2023-11-21T11:05:34;10.70;99.90
4677;DHT22;2352;48.180;11.478;2023-11-21T11:08:38;11.20;99.90
4677;DHT22;2352;48.180;11.478;2023-11-21T11:11:41;11.50;99.90
4677;DHT22;2352;48.180;11.478;2023-11-21T11:14:45;11.60;99.90
4677;DHT22;2352;48.180;11.478;2023-11-21T11:17:51;11.40;99.90
4677;DHT22;2352;48.180;11.478;2023-11-21T11:20:54;11.50;99.90
4677;DHT22;2352;48.180;11.478;2023-11-21T11:24:11;11.40;99.90
4677;DHT22;2352;48.180;11.478;2023-11-21T11:27:25;11.40;99.90
4677;DHT22;2352;48.180;11.478;2023-11-21T11:30:41;11.40;99.90
4677;DHT22;2352;48.180;11.478;2023-11-21T11:33:55;11.30;99.90
4677;DHT22;2352;48.180;11.478;2023-11-21T11:37:02;11.40;99.90
4677;DHT22;2352;48.180;11.478;2023-11-21T11:40:06;11.40;99.90
4677;DHT22;2352;48.180;11.478;2023-11-21T11:43:10;11.30;99.90
4677;DHT22;2352;48.180;11.478;2023-11-21T11:46:13;11.40;99.90
4677;DHT22;2352;48.180;11.478;2023-11-21T11:49:24;11.40;99.90
4677;DHT22;2352;48.180;11.478;2023-11-21T11:52:38;11.40;99.90
4677;DHT22;2352;48.180;11.478;2023-11-21T11:55:43;11.50;99.90
4677;DHT22;2352;48.180;11.478;2023-11-21T11:58:47;11.40;99.90
4677;DHT22;2352;48.180;11.478;2023-11-21T12:01:50;11.50;99.90
4677;DHT22;2352;48.180;11.478;2023-11-21T12:04:57;11.40;99.90
4677;DHT22;2352;48.180;11.478;2023-11-21T12:08:01;11.60;99.90
4677;DHT22;2352;48.180;11.478;2023-11-21T12:11:05;11.70;99.90
4677;DHT22;2352;48.180;11.478;2023-11-21T12:14:08;11.70;99.90
4677;DHT22;2352;48.180;11.478;2023-11-21T12:17:12;11.50;99.90
4677;DHT22;2352;48.180;11.478;2023-11-21T12:20:19;11.60;99.90
4677;DHT22;2352;48.180;11.478;2023-11-21T12:23:22;11.60;99.90
4677;DHT22;2352;48.180;11.478;2023-11-21T12:26:25;11.50;99.90
4677;DHT22;2352;48.180;11.478;2023-11-21T12:29:27;10.90;99.90
4677;DHT22;2352;48.180;11.478;2023-11-21T12:32:31;11.30;99.90
4677;DHT22;2352;48.180;11.478;2023-11-21T12:35:36;11.10;99.90
4677;DHT22;2352;48.180;11.478;2023-11-21T12:38:39;11.00;99.90
4677;DHT22;2352;48.180;11.478;2023-11-21T12:41:44;10.90;99.90
4677;DHT22;2352;48.180;11.478;2023-11-21T12:44:47;11.00;99.90
4677;DHT22;2352;48.180;11.478;2023-11-21T12:47:52;11.00;99.90
4677;DHT22;2352;48.180;11.478;2023-11-21T12:50:58;11.20;99.90
4677;DHT22;2352;48.180;11.478;2023-11-21T12:54:01;11.30;99.90
4677;DHT22;2352;48.180;11.478;2023-11-21T12:57:06;11.40;99.90
4677;DHT22;2352;48.180;11.478;2023-11-21T13:00:11;11.40;99.90
4677;DHT22;2352;48.180;11.478;2023-11-21T13:03:17;11.40;99.90
4677;DHT22;2352;48.180;11.478;2023-11-21T13:06:23;11.30;99.90
4677;DHT22;2352;48.180;11.478;2023-11-21T13:09:27;11.30;99.90
4677;DHT22;2352;48.180;11.478;2023-11-21T13:12:31;11.40;99.90
4677;DHT22;2352;48.180;11.478;2023-11-21T13:15:38;11.50;99.90
4677;DHT22;2352;48.180;11.478;2023-11-21T13:18:42;11.50;99.90
4677;DHT22;2352;48.180;11.478;2023-11-21T13:21:47;11.50;99.90
4677;DHT22;2352;48.180;11.478;2023-11-21T13:24:49;11.40;99.90
4677;DHT22;2352;48.180;11.478;2023-11-21T13:27:52;11.30;99.90
4677;DHT22;2352;48.180;11.478;2023-11-21T13:30:55;11.30;99.90
4677;DHT22;2352;48.180;11.478;2023-11-21T13:33:58;11.30;99.90
4677;DHT22;2352;48.180;11.478;2023-11-21T13:37:08;11.20;99.90
4677;DHT22;2352;48.180;11.478;2023-11-21T13:40:11;10.90;99.90
4677;DHT22;2352;48.180;11.478;2023-11-21T13:43:17;10.80;99.90
4677;DHT22;2352;48.180;11.478;2023-11-21T13:46:22;10.50;99.90
4677;DHT22;2352;48.180;11.478;2023-11-21T13:49:25;10.60;99.90
4677;DHT22;2352;48.180;11.478;2023-11-21T13:52:30;10.50;99.90
4677;DHT22;2352;48.180;11.478;2023-11-21T13:55:35;10.50;99.90
4677;DHT22;2352;48.180;11.478;2023-11-21T13:58:38;10.50;99.90
4677;DHT22;2352;48.180;11.478;2023-11-21T14:01:48;10.40;99.90
4677;DHT22;2352;48.180;11.478;2023-11-21T14:04:59;10.40;99.90
4677;DHT22;2352;48.180;11.478;2023-11-21T14:08:11;10.40;99.90
4677;DHT22;2352;48.180;11.478;2023-11-21T14:11:18;10.40;99.90
4677;DHT22;2352;48.180;11.478;2023-11-21T14:14:26;10.20;99.90
4677;DHT22;2352;48.180;11.478;2023-11-21T14:17:30;10.20;99.90
4677;DHT22;2352;48.180;11.478;2023-11-21T14:20:33;10.20;99.90
4677;DHT22;2352;48.180;11.478;2023-11-21T14:23:39;10.20;99.90
4677;DHT22;2352;48.180;11.478;2023-11-21T14:26:42;10.20;99.90
4677;DHT22;2352;48.180;11.478;2023-11-21T14:29:47;10.10;99.90
4677;DHT22;2352;48.180;11.478;2023-11-21T14:32:50;10.00;99.90
4677;DHT22;2352;48.180;11.478;2023-11-21T14:35:53;10.10;99.90
4677;DHT22;2352;48.180;11.478;2023-11-21T14:38:57;10.10;99.90
4677;DHT22;2352;48.180;11.478;2023-11-21T14:42:00;10.10;99.90
4677;DHT22;2352;48.180;11.478;2023-11-21T14:45:05;10.10;99.90
4677;DHT22;2352;48.180;11.478;2023-11-21T14:48:09;10.00;99.90
4677;DHT22;2352;48.180;11.478;2023-11-21T14:51:17;10.00;99.90
4677;DHT22;2352;48.180;11.478;2023-11-21T14:54:33;10.10;99.90
4677;DHT22;2352;48.180;11.478;2023-11-21T14:57:42;10.00;99.90
4677;DHT22;2352;48.180;11.478;2023-11-21T15:00:50;10.00;99.90
4677;DHT22;2352;48.180;11.478;2023-11-21T15:03:58;10.00;99.90
4677;DHT22;2352;48.180;11.478;2023-11-21T15:07:01;10.00;99.90
4677;DHT22;2352;48.180;11.478;2023-11-21T15:10:07;10.00;99.90
4677;DHT22;2352;48.180;11.478;2023-11-21T15:13:14;9.90;99.90
4677;DHT22;2352;48.180;11.478;2023-11-21T15:16:17;9.90;99.90
4677;DHT22;2352;48.180;11.478;2023-11-21T15:19:20;9.90;99.90
4677;DHT22;2352;48.180;11.478;2023-11-21T15:22:27;10.00;99.90
4677;DHT22;2352;48.180;11.478;2023-11-21T15:25:32;10.00;99.90
4677;DHT22;2352;48.180;11.478;2023-11-21T15:28:35;10.00;99.90
4677;DHT22;2352;48.180;11.478;2023-11-21T15:31:38;10.00;99.90
4677;DHT22;2352;48.180;11.478;2023-11-21T15:34:45;10.00;99.90
4677;DHT22;2352;48.180;11.478;2023-11-21T15:37:49;10.00;99.90
4677;DHT22;2352;48.180;11.478;2023-11-21T15:40:53;9.90;99.90
4677;DHT22;2352;48.180;11.478;2023-11-21T15:43:56;9.90;99.90
4677;DHT22;2352;48.180;11.478;2023-11-21T15:46:59;9.90;99.90
4677;DHT22;2352;48.180;11.478;2023-11-21T15:50:03;9.90;99.90
4677;DHT22;2352;48.180;11.478;2023-11-21T15:53:10;9.90;99.90
4677;DHT22;2352;48.180;11.478;2023-11-21T15:56:14;9.80;99.90
4677;DHT22;2352;48.180;11.478;2023-11-21T15:59:19;9.90;99.90
4677;DHT22;2352;48.180;11.478;2023-11-21T16:02:25;9.90;99.90
4677;DHT22;2352;48.180;11.478;2023-11-21T16:05:28;9.80;99.90
4677;DHT22;2352;48.180;11.478;2023-11-21T16:08:31;9.90;99.90
4677;DHT22;2352;48.180;11.478;2023-11-21T16:11:36;9.80;99.90
4677;DHT22;2352;48.180;11.478;2023-11-21T16:14:39;9.80;99.90
4677;DHT22;2352;48.180;11.478;2023-11-21T16:17:45;9.80;99.90
4677;DHT22;2352;48.180;11.478;2023-11-21T16:20:48;9.80;99.90
4677;DHT22;2352;48.180;11.478;2023-11-21T16:23:52;9.90;99.90
4677;DHT22;2352;48.180;11.478;2023-11-21T16:26:56;9.90;99.90
4677;DHT22;2352;48.180;11.478;2023-11-21T16:29:59;9.90;99.90
4677;DHT22;2352;48.180;11.478;2023-11-21T16:33:05;9.90;99.90
4677;DHT22;2352;48.180;11.478;2023-11-21T16:36:09;9.90;99.90
4677;DHT22;2352;48.180;11.478;2023-11-21T16:39:12;9.90;99.90
4677;DHT22;2352;48.180;11.478;2023-11-21T16:42:17;9.70;99.90
4677;DHT22;2352;48.180;11.478;2023-11-21T16:45:20;9.80;99.90
4677;DHT22;2352;48.180;11.478;2023-11-21T16:48:24;9.90;99.90
4677;DHT22;2352;48.180;11.478;2023-11-21T16:51:27;9.80;99.90
4677;DHT22;2352;48.180;11.478;2023-11-21T16:54:30;9.70;99.90
4677;DHT22;2352;48.180;11.478;2023-11-21T16:57:35;9.70;99.90
4677;DHT22;2352;48.180;11.478;2023-11-21T17:00:39;9.70;99.90
4677;DHT22;2352;48.180;11.478;2023-11-21T17:03:43;9.60;99.90
4677;DHT22;2352;48.180;11.478;2023-11-21T17:06:46;9.60;99.90
4677;DHT22;2352;48.180;11.478;2023-11-21T17:09:49;9.70;99.90
4677;DHT22;2352;48.180;11.478;2023-11-21T17:12:54;9.70;99.90
4677;DHT22;2352;48.180;11.478;2023-11-21T17:15:57;9.70;99.90
4677;DHT22;2352;48.180;11.478;2023-11-21T17:18:59;9.60;99.90
4677;DHT22;2352;48.180;11.478;2023-11-21T17:22:04;9.70;99.90
4677;DHT22;2352;48.180;11.478;2023-11-21T17:25:09;9.60;99.90
4677;DHT22;2352;48.180;11.478;2023-11-21T17:28:13;9.60;99.90
4677;DHT22;2352;48.180;11.478;2023-11-21T17:31:16;9.60;99.90
4677;DHT22;2352;48.180;11.478;2023-11-21T17:34:20;9.50;99.90
4677;DHT22;2352;48.180;11.478;2023-11-21T17:37:23;9.60;99.90
4677;DHT22;2352;48.180;11.478;2023-11-21T17:40:26;9.50;99.90
4677;DHT22;2352;48.180;11.478;2023-11-21T17:43:31;9.60;99.90
4677;DHT22;2352;48.180;11.478;2023-11-21T17:46:37;9.50;99.90
4677;DHT22;2352;48.180;11.478;2023-11-21T17:49:40;9.50;99.90
4677;DHT22;2352;48.180;11.478;2023-11-21T17:52:43;9.50;99.90
4677;DHT22;2352;48.180;11.478;2023-11-21T17:55:47;9.60;99.90
4677;DHT22;2352;48.180;11.478;2023-11-21T17:58:51;9.60;99.90
4677;DHT22;2352;48.180;11.478;2023-11-21T18:01:56;9.60;99.90
4677;DHT22;2352;48.180;11.478;2023-11-21T18:04:59;9.50;99.90
4677;DHT22;2352;48.180;11.478;2023-11-21T18:08:03;9.60;99.90
4677;DHT22;2352;48.180;11.478;2023-11-21T18:11:06;9.60;99.90
4677;DHT22;2352;48.180;11.478;2023-11-21T18:14:11;9.50;99.90
4677;DHT22;2352;48.180;11.478;2023-11-21T18:17:14;9.50;99.90
4677;DHT22;2352;48.180;11.478;2023-11-21T18:20:18;9.50;99.90
4677;DHT22;2352;48.180;11.478;2023-11-21T18:23:21;9.50;99.90
4677;DHT22;2352;48.180;11.478;2023-11-21T18:26:24;9.50;99.90
4677;DHT22;2352;48.180;11.478;2023-11-21T18:29:28;9.50;99.90
4677;DHT22;2352;48.180;11.478;2023-11-21T18:32:31;9.50;99.90
4677;DHT22;2352;48.180;11.478;2023-11-21T18:35:34;9.50;99.90
4677;DHT22;2352;48.180;11.478;2023-11-21T18:38:38;9.50;99.90
4677;DHT22;2352;48.180;11.478;2023-11-21T18:41:41;9.40;99.90
4677;DHT22;2352;48.180;11.478;2023-11-21T18:44:45;9.40;99.90
4677;DHT22;2352;48.180;11.478;2023-11-21T18:47:59;9.40;99.90
4677;DHT22;2352;48.180;11.478;2023-11-21T18:51:02;9.50;99.90
4677;DHT22;2352;48.180;11.478;2023-11-21T18:54:05;9.40;99.90
4677;DHT22;2352;48.180;11.478;2023-11-21T18:57:08;9.40;99.90
4677;DHT22;2352;48.180;11.478;2023-11-21T19:00:13;9.40;99.90
4677;DHT22;2352;48.180;11.478;2023-11-21T19:03:18;9.40;99.90
4677;DHT22;2352;48.180;11.478;2023-11-21T19:06:21;9.50;99.90
4677;DHT22;2352;48.180;11.478;2023-11-21T19:09:24;9.50;99.90
4677;DHT22;2352;48.180;11.478;2023-11-21T19:12:27;9.50;99.90
4677;DHT22;2352;48.180;11.478;2023-11-21T19:15:31;9.40;99.90
4677;DHT22;2352;48.180;11.478;2023-11-21T19:18:34;9.50;99.90
4677;DHT22;2352;48.180;11.478;2023-11-21T19:21:37;9.40;99.90
4677;DHT22;2352;48.180;11.478;2023-11-21T19:24:41;9.40;99.90
4677;DHT22;2352;48.180;11.478;2023-11-21T19:27:45;8.60;99.90
4677;DHT22;2352;48.180;11.478;2023-11-21T19:30:51;9.40;99.90
4677;DHT22;2352;48.180;11.478;2023-11-21T19:33:54;9.40;99.90
4677;DHT22;2352;48.180;11.478;2023-11-21T19:36:56;9.40;99.90
4677;DHT22;2352;48.180;11.478;2023-11-21T19:40:00;9.40;99.90
4677;DHT22;2352;48.180;11.478;2023-11-21T19:43:05;9.40;99.90
4677;DHT22;2352;48.180;11.478;2023-11-21T19:46:10;9.30;99.90
4677;DHT22;2352;48.180;11.478;2023-11-21T19:49:13;9.30;99.90
4677;DHT22;2352;48.180;11.478;2023-11-21T19:52:16;9.30;99.90
4677;DHT22;2352;48.180;11.478;2023-11-21T19:55:19;9.20;99.90
4677;DHT22;2352;48.180;11.478;2023-11-21T19:58:22;9.20;99.90
4677;DHT22;2352;48.180;11.478;2023-11-21T20:01:27;9.30;99.90
4677;DHT22;2352;48.180;11.478;2023-11-21T20:04:31;9.20;99.90
4677;DHT22;2352;48.180;11.478;2023-11-21T20:07:34;9.10;99.90
4677;DHT22;2352;48.180;11.478;2023-11-21T20:10:37;9.20;99.90
4677;DHT22;2352;48.180;11.478;2023-11-21T20:13:42;9.20;99.90
4677;DHT22;2352;48.180;11.478;2023-11-21T20:16:46;9.20;99.90
4677;DHT22;2352;48.180;11.478;2023-11-21T20:19:51;9.20;99.90
4677;DHT22;2352;48.180;11.478;2023-11-21T20:22:55;9.10;99.90
4677;DHT22;2352;48.180;11.478;2023-11-21T20:25:58;9.10;99.90
4677;DHT22;2352;48.180;11.478;2023-11-21T20:29:03;9.10;99.90
4677;DHT22;2352;48.180;11.478;2023-11-21T20:32:07;9.10;99.90
4677;DHT22;2352;48.180;11.478;2023-11-21T20:35:10;9.10;99.90
4677;DHT22;2352;48.180;11.478;2023-11-21T20:38:14;9.10;99.90
4677;DHT22;2352;48.180;11.478;2023-11-21T20:41:17;9.20;99.90
4677;DHT22;2352;48.180;11.478;2023-11-21T20:44:20;9.20;99.90
4677;DHT22;2352;48.180;11.478;2023-11-21T20:47:25;9.20;99.90
4677;DHT22;2352;48.180;11.478;2023-11-21T20:50:28;9.10;99.90
4677;DHT22;2352;48.180;11.478;2023-11-21T20:53:31;9.10;99.90
4677;DHT22;2352;48.180;11.478;2023-11-21T20:56:34;9.10;99.90
4677;DHT22;2352;48.180;11.478;2023-11-21T20:59:37;9.10;99.90
4677;DHT22;2352;48.180;11.478;2023-11-21T21:02:41;9.20;99.90
4677;DHT22;2352;48.180;11.478;2023-11-21T21:05:46;9.20;99.90
4677;DHT22;2352;48.180;11.478;2023-11-21T21:08:49;9.20;99.90
4677;DHT22;2352;48.180;11.478;2023-11-21T21:11:52;9.20;99.90
4677;DHT22;2352;48.180;11.478;2023-11-21T21:14:55;9.30;99.90
4677;DHT22;2352;48.180;11.478;2023-11-21T21:18:00;9.20;99.90
4677;DHT22;2352;48.180;11.478;2023-11-21T21:21:07;9.20;99.90
4677;DHT22;2352;48.180;11.478;2023-11-21T21:24:09;9.10;99.90
4677;DHT22;2352;48.180;11.478;2023-11-21T21:27:13;9.00;99.90
4677;DHT22;2352;48.180;11.478;2023-11-21T21:30:15;9.00;99.90
4677;DHT22;2352;48.180;11.478;2023-11-21T21:33:20;9.10;99.90
4677;DHT22;2352;48.180;11.478;2023-11-21T21:36:22;9.10;99.90
4677;DHT22;2352;48.180;11.478;2023-11-21T21:39:25;9.10;99.90
4677;DHT22;2352;48.180;11.478;2023-11-21T21:42:28;9.10;99.90
4677;DHT22;2352;48.180;11.478;2023-11-21T21:45:31;9.10;99.90
4677;DHT22;2352;48.180;11.478;2023-11-21T21:48:35;9.10;99.90
4677;DHT22;2352;48.180;11.478;2023-11-21T21:51:38;9.10;99.90
4677;DHT22;2352;48.180;11.478;2023-11-21T21:54:41;9.10;99.90
4677;DHT22;2352;48.180;11.478;2023-11-21T21:57:45;9.20;99.90
4677;DHT22;2352;48.180;11.478;2023-11-21T22:00:48;9.20;99.90
4677;DHT22;2352;48.180;11.478;2023-11-21T22:03:52;9.20;99.90
4677;DHT22;2352;48.180;11.478;2023-11-21T22:06:57;9.20;99.90
4677;DHT22;2352;48.180;11.478;2023-11-21T22:10:00;9.20;99.90
4677;DHT22;2352;48.180;11.478;2023-11-21T22:13:03;9.20;99.90
4677;DHT22;2352;48.180;11.478;2023-11-21T22:16:06;9.10;99.90
4677;DHT22;2352;48.180;11.478;2023-11-21T22:19:12;9.10;99.90
4677;DHT22;2352;48.180;11.478;2023-11-21T22:22:16;9.10;99.90
4677;DHT22;2352;48.180;11.478;2023-11-21T22:25:19;9.10;99.90
4677;DHT22;2352;48.180;11.478;2023-11-21T22:28:22;9.20;99.90
4677;DHT22;2352;48.180;11.478;2023-11-21T22:31:25;9.10;99.90
4677;DHT22;2352;48.180;11.478;2023-11-21T22:34:29;9.20;99.90
4677;DHT22;2352;48.180;11.478;2023-11-21T22:37:32;9.20;99.90
4677;DHT22;2352;48.180;11.478;2023-11-21T22:40:34;9.20;99.90
4677;DHT22;2352;48.180;11.478;2023-11-21T22:43:37;9.10;99.90
4677;DHT22;2352;48.180;11.478;2023-11-21T22:46:41;9.10;99.90
4677;DHT22;2352;48.180;11.478;2023-11-21T22:49:45;9.10;99.90
4677;DHT22;2352;48.180;11.478;2023-11-21T22:52:48;9.10;99.90
4677;DHT22;2352;48.180;11.478;2023-11-21T22:55:54;9.10;99.90
4677;DHT22;2352;48.180;11.478;2023-11-21T22:58:57;9.10;99.90
4677;DHT22;2352;48.180;11.478;2023-11-21T23:02:00;9.10;99.90
4677;DHT22;2352;48.180;11.478;2023-11-21T23:05:05;9.20;99.90
4677;DHT22;2352;48.180;11.478;2023-11-21T23:08:11;9.10;99.90
4677;DHT22;2352;48.180;11.478;2023-11-21T23:11:14;9.20;99.90
4677;DHT22;2352;48.180;11.478;2023-11-21T23:14:17;9.10;99.90
4677;DHT22;2352;48.180;11.478;2023-11-21T23:17:20;9.10;99.90
4677;DHT22;2352;48.180;11.478;2023-11-21T23:20:25;9.10;99.90
4677;DHT22;2352;48.180;11.478;2023-11-21T23:23:28;9.20;99.90
4677;DHT22;2352;48.180;11.478;2023-11-21T23:26:31;9.10;99.90
4677;DHT22;2352;48.180;11.478;2023-11-21T23:29:33;9.10;99.90
4677;DHT22;2352;48.180;11.478;2023-11-21T23:32:37;9.10;99.90
4677;DHT22;2352;48.180;11.478;2023-11-21T23:35:43;9.10;99.90
4677;DHT22;2352;48.180;11.478;2023-11-21T23:38:46;9.10;99.90
4677;DHT22;2352;48.180;11.478;2023-11-21T23:41:49;9.10;99.90
4677;DHT22;2352;48.180;11.478;2023-11-21T23:44:52;9.10;99.90
4677;DHT22;2352;48.180;11.478;2023-11-21T23:47:55;9.10;99.90
4677;DHT22;2352;48.180;11.478;2023-11-21T23:51:00;9.10;99.90
4677;DHT22;2352;48.180;11.478;2023-11-21T23:54:03;9.00;99.90
4677;DHT22;2352;48.180;11.478;2023-11-21T23:57:06;9.00;99.90
